Time;durP1;ratioP1;P1;durP2;ratioP2;P2;SDS_P1;SDS_P2;PMS_P1;PMS_P2;Temp;Humidity;BMP_temperature;BMP_pressure;BME280_temperature;BME280_humidity;BME280_pressure;Samples;Min_cycle;Max_cycle;Signal;HPM_P1;HPM_P2
2021/07/16 00:01:15;;;;;;;16.33;6.65;;;;;;;16.22;93.56;102047.97;5074234;28;20035;-36
2021/07/16 00:03:41;;;;;;;14.77;6.23;;;;;;;16.28;93.40;102057.09;5074400;28;20028;-36
2021/07/16 00:06:06;;;;;;;12.17;6.17;;;;;;;16.23;94.18;102052.38;5074549;28;20750;-36
2021/07/16 00:08:31;;;;;;;12.20;6.13;;;;;;;16.27;94.47;102050.00;5074533;28;20313;-36
2021/07/16 00:10:57;;;;;;;;;;;;;;;16.40;94.17;102066.13;5075296;28;20025;-36
2021/07/16 00:13:22;;;;;;;12.63;6.83;;;;;;;16.34;94.80;102061.59;5074224;28;19912;-36
2021/07/16 00:15:47;;;;;;;15.25;6.50;;;;;;;16.16;93.80;102046.22;5074369;28;20255;-36
2021/07/16 00:18:12;;;;;;;;;;;;;;;16.37;93.90;102067.41;5074743;28;20123;-36
2021/07/16 00:20:38;;;;;;;13.90;6.47;;;;;;;16.28;94.18;102070.75;5074121;28;19904;-36
2021/07/16 00:23:03;;;;;;;16.10;6.80;;;;;;;16.15;94.75;102050.00;5074067;28;20271;-36
2021/07/16 00:25:28;;;;;;;;;;;;;;;16.33;94.02;102065.41;5074444;28;20056;-36
2021/07/16 00:27:54;;;;;;;11.80;6.10;;;;;;;16.24;94.34;102054.00;5073547;28;19962;-36
2021/07/16 00:30:20;;;;;;;13.93;6.35;;;;;;;16.29;94.85;102066.94;5074807;28;20254;-36
2021/07/16 00:32:45;;;;;;;;;;;;;;;16.35;94.38;102057.81;5074321;28;20033;-36
2021/07/16 00:35:11;;;;;;;11.97;6.60;;;;;;;16.21;94.59;102063.53;5073904;28;19904;-36
2021/07/16 00:37:36;;;;;;;;;;;;;;;16.35;94.85;102064.09;5073001;28;20461;-36
2021/07/16 00:40:06;;;;;;;16.15;7.00;;;;;;;16.25;95.30;102068.50;5074657;28;20218;-36
2021/07/16 00:42:31;;;;;;;12.80;6.90;;;;;;;16.27;94.15;102071.81;5073703;28;20108;-36
2021/07/16 00:44:56;;;;;;;11.87;6.37;;;;;;;16.22;94.50;102067.91;5073925;28;20052;-36
2021/07/16 00:47:22;;;;;;;18.58;7.38;;;;;;;16.23;94.84;102071.47;5073682;28;20298;-36
2021/07/16 00:49:47;;;;;;;;;;;;;;;16.33;94.82;102077.16;5074477;28;20028;-36
2021/07/16 00:52:12;;;;;;;13.88;6.65;;;;;;;16.14;94.79;102062.81;5074445;28;20002;-36
2021/07/16 00:54:38;;;;;;;;;;;;;;;16.34;94.74;102077.97;5074133;28;20098;-36
2021/07/16 00:57:07;;;;;;;17.15;6.60;;;;;;;16.30;94.85;102077.66;5073583;28;19904;-36
2021/07/16 00:59:33;;;;;;;10.85;6.53;;;;;;;16.22;95.78;102075.28;5073829;28;20112;-36
2021/07/16 01:01:59;;;;;;;14.20;6.28;;;;;;;16.19;94.44;102065.66;5073886;28;20056;-36
2021/07/16 01:04:25;;;;;;;18.08;6.18;;;;;;;16.24;94.97;102078.56;5073198;28;20052;-36
2021/07/16 01:06:51;;;;;;;11.05;6.10;;;;;;;16.31;94.84;102092.13;5073517;28;20059;-36
2021/07/16 01:09:16;;;;;;;15.55;7.15;;;;;;;16.28;95.00;102084.41;5073470;28;20144;-36
2021/07/16 01:11:41;;;;;;;;;;;;;;;16.37;94.72;102081.06;5073660;28;20029;-36
2021/07/16 01:14:10;;;;;;;12.57;6.75;;;;;;;16.30;94.97;102077.66;5073476;28;19904;-36
2021/07/16 01:16:35;;;;;;;13.68;6.75;;;;;;;16.21;93.97;102088.09;5074071;28;20024;-36
2021/07/16 01:19:01;;;;;;;15.30;6.95;;;;;;;16.25;94.27;102084.88;5073440;28;20490;-36
2021/07/16 01:21:31;;;;;;;13.45;6.47;;;;;;;16.22;94.48;102081.56;5073714;28;20086;-36
2021/07/16 01:23:57;;;;;;;13.90;6.85;;;;;;;16.23;93.82;102076.91;5073089;28;20035;-36
2021/07/16 01:26:22;;;;;;;13.73;6.07;;;;;;;16.21;94.00;102079.91;5073011;28;20457;-36
2021/07/16 01:28:48;;;;;;;;;;;;;;;16.33;94.32;102084.50;5073994;28;20039;-36
2021/07/16 01:31:13;;;;;;;13.10;7.50;;;;;;;16.17;94.51;102075.16;5073593;28;20332;-36
2021/07/16 01:33:39;;;;;;;11.70;5.88;;;;;;;16.23;93.96;102077.75;5073479;28;20020;-36
2021/07/16 01:36:04;;;;;;;12.63;7.13;;;;;;;16.18;93.87;102082.25;5073124;28;20028;-36
2021/07/16 01:38:30;;;;;;;;;;;;;;;16.27;94.21;102074.56;5073353;28;20115;-36
2021/07/16 01:40:55;;;;;;;12.53;6.67;;;;;;;16.19;94.41;102083.91;5073018;28;20428;-36
2021/07/16 01:43:20;;;;;;;12.45;6.30;;;;;;;16.18;94.85;102076.81;5073186;28;20793;-36
2021/07/16 01:45:46;;;;;;;;;;;;;;;16.28;94.34;102074.31;5074307;28;20032;-36
2021/07/16 01:48:14;;;;;;;18.30;6.90;;;;;;;16.13;93.88;102082.97;5072798;28;19908;-36
2021/07/16 01:50:42;;;;;;;14.68;7.07;;;;;;;16.08;94.05;102062.94;5073531;28;20024;-36
2021/07/16 01:53:09;;;;;;;16.83;7.10;;;;;;;16.13;94.28;102071.25;5072922;28;20031;-36
2021/07/16 01:55:36;;;;;;;15.40;6.90;;;;;;;16.10;94.15;102077.97;5073735;28;20028;-36
2021/07/16 01:58:06;;;;;;;16.00;6.65;;;;;;;16.03;94.81;102080.03;5076456;28;20465;-36
2021/07/16 02:00:43;;;;;;;15.13;7.28;;;;;;;16.10;94.56;102082.63;5077317;28;20025;-36
2021/07/16 02:03:11;;;;;;;14.95;6.53;;;;;;;16.04;94.49;102072.66;5076680;28;20025;-36
2021/07/16 02:05:39;;;;;;;15.02;7.15;;;;;;;16.01;95.03;102076.72;5076612;28;20446;-36
2021/07/16 02:08:15;;;;;;;13.32;6.68;;;;;;;16.02;94.66;102075.63;5076729;28;20042;-36
2021/07/16 02:10:48;;;;;;;11.73;6.33;;;;;;;16.06;94.88;102081.47;5076560;28;20017;-36
2021/07/16 02:13:14;;;;;;;12.40;7.18;;;;;;;16.02;95.06;102081.09;5077298;28;20313;-36
2021/07/16 02:15:42;;;;;;;14.77;7.40;;;;;;;16.09;94.33;102079.06;5077001;28;20399;-36
2021/07/16 02:18:08;;;;;;;10.55;7.15;;;;;;;16.05;95.13;102085.22;5076298;28;20047;-36
2021/07/16 02:20:39;;;;;;;16.02;7.55;;;;;;;16.02;94.33;102088.44;5076892;28;20444;-36
2021/07/16 02:23:07;;;;;;;16.92;7.40;;;;;;;16.03;94.72;102085.47;5076949;28;20029;-36
2021/07/16 02:25:33;;;;;;;12.93;7.30;;;;;;;16.09;94.97;102080.97;5076824;28;20024;-36
2021/07/16 02:28:04;;;;;;;13.10;7.50;;;;;;;16.00;94.83;102072.28;5076171;28;20488;-36
2021/07/16 02:30:30;;;;;;;14.98;7.75;;;;;;;16.05;94.05;102077.88;5074916;28;20020;-36
2021/07/16 02:32:57;;;;;;;14.07;7.60;;;;;;;16.05;94.31;102090.69;5076151;28;20061;-36
2021/07/16 02:35:23;;;;;;;17.92;8.32;;;;;;;15.99;93.25;102087.00;5076615;28;20025;-36
2021/07/16 02:37:49;;;;;;;17.48;8.23;;;;;;;15.98;93.84;102079.91;5076654;28;20049;-36
2021/07/16 02:40:15;;;;;;;;;;;;;;;16.06;93.77;102093.19;5076810;28;20342;-36
2021/07/16 02:42:42;;;;;;;16.80;7.63;;;;;;;15.92;93.06;102091.78;5076175;28;19951;-36
2021/07/16 02:45:10;;;;;;;19.27;9.02;;;;;;;15.80;92.74;102083.56;5076004;28;20405;-36
2021/07/16 02:47:36;;;;;;;14.73;7.70;;;;;;;15.84;92.41;102092.94;5075798;28;20360;-36
2021/07/16 02:50:07;;;;;;;12.30;7.72;;;;;;;15.88;93.65;102096.03;5076152;28;20025;-36
2021/07/16 02:52:32;;;;;;;13.93;7.60;;;;;;;15.89;92.85;102098.50;5076080;28;20025;-36
2021/07/16 02:54:58;;;;;;;18.05;8.27;;;;;;;15.93;93.28;102098.88;5076104;28;20134;-36
2021/07/16 02:57:23;;;;;;;;;;;;;;;15.99;92.97;102103.38;5075878;28;20024;-36
2021/07/16 02:59:48;;;;;;;20.07;8.23;;;;;;;15.91;92.58;102096.41;5075417;28;19947;-36
2021/07/16 03:02:14;;;;;;;;;;;;;;;16.00;92.84;102110.50;5075984;28;20103;-36
2021/07/16 03:04:39;;;;;;;15.87;7.43;;;;;;;15.84;92.80;102094.84;5076400;28;19952;-36
2021/07/16 03:07:05;;;;;;;17.98;8.02;;;;;;;15.86;92.30;102093.53;5075427;28;20306;-36
2021/07/16 03:09:34;;;;;;;19.53;7.47;;;;;;;15.86;92.15;102114.50;5075538;28;20024;-36
2021/07/16 03:12:01;;;;;;;18.88;7.80;;;;;;;15.90;92.22;102110.25;5075739;28;20293;-36
2021/07/16 03:14:26;;;;;;;23.67;7.63;;;;;;;15.84;91.79;102109.28;5075576;28;20085;-36
2021/07/16 03:16:51;;;;;;;15.60;7.90;;;;;;;15.83;91.87;102098.63;5075365;28;20028;-36
2021/07/16 03:19:16;;;;;;;;;;;;;;;15.89;92.04;102098.50;5075970;28;20521;-36
2021/07/16 03:21:42;;;;;;;16.67;7.67;;;;;;;15.77;90.98;102105.03;5075802;28;19904;-36
2021/07/16 03:24:08;;;;;;;19.00;7.93;;;;;;;15.75;91.35;102105.25;5075509;28;20274;-36
2021/07/16 03:26:33;;;;;;;17.15;7.35;;;;;;;15.78;91.67;102106.69;5075624;28;20043;-36
2021/07/16 03:28:58;;;;;;;17.43;7.33;;;;;;;15.64;90.77;102093.25;5075668;28;20432;-36
2021/07/16 03:31:23;;;;;;;17.70;7.45;;;;;;;15.74;91.07;102105.50;5075308;28;20723;-36
2021/07/16 03:33:49;;;;;;;15.55;6.93;;;;;;;15.70;91.10;102108.69;5075238;28;20043;-36
2021/07/16 03:36:14;;;;;;;22.25;7.82;;;;;;;15.57;89.81;102095.25;5074592;28;20072;-36
2021/07/16 03:38:40;;;;;;;11.07;6.30;;;;;;;15.56;90.70;102087.28;5075488;28;20043;-36
2021/07/16 03:41:08;;;;;;;18.15;7.43;;;;;;;15.61;90.39;102106.50;5073988;28;20407;-36
2021/07/16 03:43:34;;;;;;;20.42;8.68;;;;;;;15.59;91.12;102104.00;5074988;28;20017;-36
2021/07/16 03:45:59;;;;;;;17.58;7.32;;;;;;;15.49;89.46;102090.13;5074441;28;20032;-36
2021/07/16 03:48:24;;;;;;;18.85;7.07;;;;;;;15.45;89.44;102081.56;5075507;28;20025;-36
2021/07/16 03:50:50;;;;;;;;;;;;;;;15.63;89.75;102104.38;5075072;28;20028;-36
2021/07/16 03:53:15;;;;;;;21.45;7.20;;;;;;;15.54;89.29;102101.16;5074808;28;19905;-36
2021/07/16 03:55:41;;;;;;;22.90;7.70;;;;;;;15.42;89.39;102097.56;5074609;28;20457;-36
2021/07/16 03:58:07;;;;;;;20.13;7.65;;;;;;;15.46;89.00;102109.66;5074156;28;20499;-36
2021/07/16 04:00:34;;;;;;;18.67;7.47;;;;;;;15.42;89.68;102111.19;5073484;28;20024;-36
2021/07/16 04:03:01;;;;;;;16.80;7.15;;;;;;;15.43;88.88;102112.88;5074128;28;20050;-36
2021/07/16 04:05:27;;;;;;;21.23;7.75;;;;;;;15.37;89.52;102116.50;5074623;28;20029;-36
2021/07/16 04:08:01;;;;;;;21.05;6.93;;;;;;;15.39;90.21;102104.31;5074763;28;20455;-36
2021/07/16 04:10:27;;;;;;;21.58;7.25;;;;;;;15.34;89.95;102106.91;5074196;28;20031;-36
2021/07/16 04:12:57;;;;;;;20.25;7.30;;;;;;;15.46;89.65;102126.84;5074132;28;20016;-35
2021/07/16 04:15:25;;;;;;;17.25;6.78;;;;;;;15.43;89.68;102129.22;5074177;28;20020;-36
2021/07/16 04:17:52;;;;;;;17.08;7.38;;;;;;;15.39;89.78;102119.84;5073978;28;20051;-36
2021/07/16 04:20:17;;;;;;;24.13;7.00;;;;;;;15.45;89.14;102141.53;5073947;28;20029;-36
2021/07/16 04:22:44;;;;;;;21.00;6.72;;;;;;;15.53;89.54;102132.22;5073706;28;20532;-36
2021/07/16 04:25:14;;;;;;;18.48;6.68;;;;;;;15.49;90.14;102136.47;5072725;28;20064;-36
2021/07/16 04:27:43;;;;;;;18.52;6.63;;;;;;;15.45;88.78;102141.53;5073755;28;20020;-36
2021/07/16 04:30:12;;;;;;;17.33;6.43;;;;;;;15.40;89.25;102122.31;5073894;28;20100;-36
2021/07/16 04:32:38;;;;;;;21.38;7.35;;;;;;;15.42;89.10;102141.16;5073515;28;20465;-36
2021/07/16 04:35:05;;;;;;;23.00;6.80;;;;;;;15.48;89.34;102150.34;5074396;28;20024;-36
2021/07/16 04:37:30;;;;;;;14.15;6.20;;;;;;;15.47;89.53;102149.50;5072125;28;20139;-36
2021/07/16 04:39:56;;;;;;;16.00;7.20;;;;;;;15.54;88.81;102146.69;5073865;28;20103;-36
2021/07/16 04:42:21;;;;;;;;;;;;;;;15.62;89.43;102140.91;5074174;28;20062;-36
2021/07/16 04:44:47;;;;;;;17.20;5.85;;;;;;;15.53;88.34;102145.84;5074001;28;19916;-36
2021/07/16 04:47:13;;;;;;;18.45;6.70;;;;;;;15.51;88.14;102142.50;5073427;28;20048;-36
2021/07/16 04:49:38;;;;;;;17.17;6.75;;;;;;;15.50;88.16;102143.56;5073373;28;20025;-36
2021/07/16 04:52:03;;;;;;;16.73;5.90;;;;;;;15.39;87.94;102136.19;5073773;28;20020;-36
2021/07/16 04:54:29;;;;;;;25.20;6.95;;;;;;;15.46;88.69;102136.91;5074095;28;20278;-36
2021/07/16 04:56:54;;;;;;;;;;;;;;;15.61;89.11;102153.69;5074096;28;20032;-36
2021/07/16 04:59:20;;;;;;;20.65;6.20;;;;;;;15.55;87.86;102149.16;5073334;28;19904;-36
2021/07/16 05:01:45;;;;;;;19.75;6.63;;;;;;;15.46;87.31;102154.09;5074133;28;20027;-36
2021/07/16 05:04:11;;;;;;;18.90;7.00;;;;;;;15.49;87.59;102161.00;5073537;28;20024;-36
2021/07/16 05:06:36;;;;;;;16.38;5.70;;;;;;;15.49;87.31;102163.72;5073666;28;20478;-36
2021/07/16 05:09:03;;;;;;;23.15;6.47;;;;;;;15.51;87.97;102158.03;5073772;28;20017;-36
2021/07/16 05:11:30;;;;;;;20.75;5.82;;;;;;;15.41;87.09;102150.41;5073661;28;20024;-36
2021/07/16 05:13:56;;;;;;;18.25;5.40;;;;;;;15.51;87.07;102160.75;5073122;28;20376;-36
2021/07/16 05:16:21;;;;;;;22.15;6.13;;;;;;;15.55;86.81;102168.25;5073128;28;20029;-36
2021/07/16 05:18:47;;;;;;;15.63;5.35;;;;;;;15.50;86.13;102168.09;5073653;28;20170;-36
2021/07/16 05:21:13;;;;;;;12.40;5.00;;;;;;;15.51;86.27;102174.38;5073710;28;20508;-36
2021/07/16 05:23:39;;;;;;;17.90;6.15;;;;;;;15.54;86.67;102185.66;5073006;28;20028;-36
2021/07/16 05:26:05;;;;;;;20.35;5.47;;;;;;;15.48;86.95;102183.88;5073866;28;20555;-36
2021/07/16 05:28:30;;;;;;;14.95;5.13;;;;;;;15.45;86.64;102185.16;5072953;28;20031;-36
2021/07/16 05:30:56;;;;;;;21.52;5.82;;;;;;;15.53;87.36;102186.75;5074889;28;20036;-36
2021/07/16 05:33:21;;;;;;;16.25;6.10;;;;;;;15.47;86.36;102171.31;5077189;28;20020;-36
2021/07/16 05:35:47;;;;;;;15.23;5.40;;;;;;;15.58;86.87;102186.06;5077782;28;20036;-36
2021/07/16 05:38:12;;;;;;;17.08;4.93;;;;;;;15.55;86.18;102184.59;5077797;28;20048;-36
2021/07/16 05:40:39;;;;;;;15.40;5.43;;;;;;;15.40;85.77;102176.84;5077492;28;20508;-36
2021/07/16 05:43:08;;;;;;;18.67;5.60;;;;;;;15.55;86.71;102181.03;5076769;28;20457;-36
2021/07/16 05:45:35;;;;;;;20.58;5.38;;;;;;;15.60;85.17;102197.53;5077577;28;20021;-36
2021/07/16 05:48:03;;;;;;;14.35;5.47;;;;;;;15.49;85.49;102182.81;5077394;28;20082;-36
2021/07/16 05:50:28;;;;;;;18.67;5.43;;;;;;;15.62;85.40;102195.44;5077499;28;20407;-36
2021/07/16 05:52:54;;;;;;;17.85;6.22;;;;;;;15.62;85.69;102189.97;5075550;28;20032;-36
2021/07/16 05:55:19;;;;;;;13.95;4.78;;;;;;;15.64;84.79;102199.59;5076803;28;20439;-36
2021/07/16 05:57:44;;;;;;;;;;;;;;;15.75;86.39;102195.25;5075876;28;20035;-36
2021/07/16 06:00:11;;;;;;;17.10;5.40;;;;;;;15.69;86.01;102201.63;5076820;28;19904;-36
2021/07/16 06:02:36;;;;;;;;;;;;;;;15.80;86.71;102203.56;5077070;28;20274;-36
2021/07/16 06:05:01;;;;;;;21.90;5.63;;;;;;;15.81;85.79;102199.78;5077019;28;19904;-36
2021/07/16 06:07:26;;;;;;;18.23;5.72;;;;;;;15.78;85.56;102207.59;5076271;28;20283;-36
2021/07/16 06:09:52;;;;;;;14.50;5.18;;;;;;;15.61;85.37;102194.56;5076918;28;20031;-36
2021/07/16 06:12:17;;;;;;;16.03;4.80;;;;;;;15.60;84.53;102195.66;5076232;28;20480;-36
2021/07/16 06:14:42;;;;;;;19.67;5.75;;;;;;;15.70;85.37;102201.41;5076547;28;20258;-36
2021/07/16 06:17:09;;;;;;;17.80;6.05;;;;;;;15.76;85.73;102206.97;5077059;28;20073;-36
2021/07/16 06:19:34;;;;;;;17.85;6.10;;;;;;;15.80;85.49;102209.00;5076962;28;20028;-36
2021/07/16 06:22:00;;;;;;;11.73;4.88;;;;;;;15.79;85.18;102210.09;5077008;28;20032;-36
2021/07/16 06:24:25;;;;;;;15.35;4.97;;;;;;;15.82;85.79;102217.00;5076402;28;20115;-36
2021/07/16 06:26:51;;;;;;;21.75;5.80;;;;;;;15.76;84.24;102213.28;5076539;28;20064;-36
2021/07/16 06:29:16;;;;;;;20.30;5.07;;;;;;;15.81;84.00;102216.16;5076251;28;20091;-36
2021/07/16 06:31:42;;;;;;;15.47;4.57;;;;;;;15.81;84.13;102216.16;5076318;28;20480;-36
2021/07/16 06:34:07;;;;;;;21.27;5.80;;;;;;;15.88;84.10;102219.59;5076438;28;20255;-36
2021/07/16 06:36:32;;;;;;;16.87;5.47;;;;;;;15.91;85.06;102215.59;5076266;28;20275;-36
2021/07/16 06:38:57;;;;;;;;;;;;;;;16.03;85.65;102207.44;5076746;28;20108;-36
2021/07/16 06:41:23;;;;;;;20.67;6.13;;;;;;;15.92;84.01;102211.78;5075940;28;19909;-36
2021/07/16 06:43:48;;;;;;;16.23;5.07;;;;;;;15.86;83.36;102207.25;5075916;28;20270;-36
2021/07/16 06:46:14;;;;;;;18.02;5.10;;;;;;;16.01;83.61;102220.47;5075936;28;20056;-36
2021/07/16 06:48:43;;;;;;;15.43;5.25;;;;;;;15.93;83.17;102208.81;5075805;28;20016;-36
2021/07/16 06:51:12;;;;;;;18.23;5.07;;;;;;;15.95;83.22;102216.75;5076390;28;20405;-36
2021/07/16 06:53:38;;;;;;;16.40;4.40;;;;;;;15.95;82.97;102212.13;5075506;28;20021;-36
2021/07/16 06:56:04;;;;;;;12.65;4.32;;;;;;;15.87;82.94;102198.84;5076333;28;20031;-36
2021/07/16 06:58:29;;;;;;;19.88;5.03;;;;;;;16.00;82.68;102216.91;5075745;28;20518;-36
2021/07/16 07:00:54;;;;;;;18.20;4.90;;;;;;;16.08;81.96;102221.19;5075732;28;20028;-36
2021/07/16 07:03:25;;;;;;;15.55;5.15;;;;;;;16.17;81.69;102228.81;5075599;28;20021;-36
2021/07/16 07:05:51;;;;;;;17.17;5.30;;;;;;;16.27;82.96;102238.31;5075313;28;20112;-36
2021/07/16 07:08:17;;;;;;;15.32;4.78;;;;;;;16.29;82.65;102234.28;5075400;28;20025;-36
2021/07/16 07:10:43;;;;;;;20.83;4.35;;;;;;;16.31;81.46;102228.59;5075462;28;20103;-36
2021/07/16 07:13:09;;;;;;;;;;;;;;;16.37;82.60;102227.66;5076161;28;20046;-36
2021/07/16 07:15:36;;;;;;;18.33;4.93;;;;;;;16.17;79.97;102236.16;5075888;28;19958;-36
2021/07/16 07:18:05;;;;;;;19.17;4.65;;;;;;;16.05;80.94;102233.38;5074963;28;20028;-36
2021/07/16 07:20:30;;;;;;;18.80;4.50;;;;;;;16.08;81.64;102249.31;5075547;28;20040;-36
2021/07/16 07:22:56;;;;;;;18.05;4.68;;;;;;;15.98;81.82;102226.41;5075216;28;20036;-36
2021/07/16 07:25:22;;;;;;;16.13;4.10;;;;;;;16.07;81.04;102234.00;5075801;28;20360;-36
2021/07/16 07:27:47;;;;;;;;;;;;;;;16.15;81.31;102243.75;5075478;28;20028;-36
2021/07/16 07:30:13;;;;;;;14.60;4.15;;;;;;;15.96;81.33;102246.56;5075912;28;19908;-36
2021/07/16 07:32:38;;;;;;;;;;;;;;;16.13;81.99;102254.91;5075445;28;20108;-36
2021/07/16 07:35:04;;;;;;;15.23;4.50;;;;;;;16.06;80.99;102251.44;5075070;28;19908;-36
2021/07/16 07:37:29;;;;;;;18.00;4.15;;;;;;;16.08;81.02;102254.75;5075251;28;20278;-36
2021/07/16 07:39:55;;;;;;;23.93;5.00;;;;;;;16.04;80.98;102237.19;5075254;28;20020;-36
2021/07/16 07:42:21;;;;;;;18.67;4.50;;;;;;;16.10;80.97;102252.63;5074851;28;20323;-36
2021/07/16 07:44:48;;;;;;;28.13;5.38;;;;;;;16.10;80.98;102251.78;5075062;28;20103;-36
2021/07/16 07:47:13;;;;;;;15.32;4.47;;;;;;;16.10;81.14;102235.41;5075510;28;20032;-36
2021/07/16 07:49:39;;;;;;;19.30;4.25;;;;;;;16.25;80.63;102249.47;5074976;28;20352;-36
2021/07/16 07:52:06;;;;;;;15.88;4.30;;;;;;;16.28;80.74;102253.63;5075534;28;20025;-36
2021/07/16 07:54:32;;;;;;;18.95;4.70;;;;;;;16.34;80.75;102258.13;5073530;28;20029;-36
2021/07/16 07:56:57;;;;;;;19.58;5.28;;;;;;;16.25;80.51;102244.03;5074837;28;20016;-36
2021/07/16 07:59:25;;;;;;;;;;;;;;;16.45;81.84;102260.91;5073949;28;20113;-36
2021/07/16 08:01:51;;;;;;;16.30;4.18;;;;;;;16.24;80.60;102242.34;5075251;28;19904;-36
2021/07/16 08:04:17;;;;;;;21.80;4.65;;;;;;;16.29;80.63;102260.75;5073173;28;20107;-36
2021/07/16 08:06:43;;;;;;;24.27;5.22;;;;;;;16.39;81.07;102274.63;5074546;28;20407;-36
2021/07/16 08:09:08;;;;;;;25.23;5.07;;;;;;;16.36;80.35;102262.31;5074370;28;20025;-36
2021/07/16 08:11:33;;;;;;;;;;;;;;;16.48;81.47;102282.25;5074785;28;20107;-36
2021/07/16 08:14:00;;;;;;;17.77;4.55;;;;;;;16.33;80.28;102279.16;5074252;28;19904;-36
2021/07/16 08:16:25;;;;;;;16.92;4.32;;;;;;;16.06;80.63;102251.44;5074181;28;20039;-36
2021/07/16 08:18:51;;;;;;;19.48;4.95;;;;;;;16.31;80.14;102280.47;5074230;28;20025;-36
2021/07/16 08:21:18;;;;;;;16.67;4.68;;;;;;;16.36;81.51;102280.59;5074181;28;20032;-36
2021/07/16 08:23:44;;;;;;;20.50;4.70;;;;;;;16.27;81.37;102287.44;5074119;28;20020;-36
2021/07/16 08:26:11;;;;;;;19.60;4.43;;;;;;;16.29;80.94;102283.41;5073763;28;20035;-36
2021/07/16 08:28:37;;;;;;;21.83;4.55;;;;;;;16.22;80.82;102269.88;5074218;28;20424;-36
2021/07/16 08:31:02;;;;;;;18.87;5.17;;;;;;;16.25;81.32;102276.78;5074270;28;20068;-36
2021/07/16 08:33:27;;;;;;;19.60;4.83;;;;;;;16.45;82.16;102287.38;5073719;28;20262;-36
2021/07/16 08:35:53;;;;;;;19.70;4.40;;;;;;;16.54;81.05;102293.28;5073988;28;20251;-36
2021/07/16 08:38:18;;;;;;;;;;;;;;;16.66;81.49;102281.31;5074713;28;20119;-34
2021/07/16 08:40:43;;;;;;;22.80;5.70;;;;;;;16.69;80.64;102271.84;5073658;28;19908;-34
2021/07/16 08:43:14;;;;;;;22.33;4.93;;;;;;;16.70;80.15;102268.88;5074069;28;20266;-34
2021/07/16 08:45:40;;;;;;;19.08;4.97;;;;;;;16.80;80.27;102281.13;5073785;28;20025;-34
2021/07/16 08:48:06;;;;;;;20.40;4.50;;;;;;;16.76;79.23;102286.22;5073703;28;20059;-34
2021/07/16 08:50:31;;;;;;;;;;;;;;;16.86;80.39;102291.94;5074248;28;20032;-34
2021/07/16 08:53:02;;;;;;;24.17;4.20;;;;;;;16.73;81.69;102297.63;5073445;28;19904;-34
2021/07/16 08:55:33;;;;;;;18.65;5.07;;;;;;;16.64;80.51;102304.47;5073656;28;20293;-34
2021/07/16 08:57:59;;;;;;;25.60;5.10;;;;;;;16.54;80.86;102309.69;5073371;28;20040;-34
2021/07/16 09:00:24;;;;;;;21.95;4.80;;;;;;;16.55;81.45;102314.09;5074317;28;20024;-34
2021/07/16 09:02:52;;;;;;;26.25;5.20;;;;;;;16.58;81.29;102311.69;5073394;28;20016;-34
2021/07/16 09:05:17;;;;;;;19.63;5.15;;;;;;;16.48;81.92;102297.81;5073690;28;20078;-34
2021/07/16 09:07:47;;;;;;;20.88;4.95;;;;;;;16.58;81.15;102305.41;5071997;28;20457;-34
2021/07/16 09:10:12;;;;;;;21.92;5.20;;;;;;;16.56;80.42;102302.09;5074332;28;20407;-34
2021/07/16 09:12:39;;;;;;;23.42;5.68;;;;;;;16.59;81.45;102294.28;5073505;28;20016;-34
2021/07/16 09:15:12;;;;;;;20.52;4.93;;;;;;;16.63;81.03;102297.34;5073107;28;20051;-34
2021/07/16 09:17:42;;;;;;;21.65;4.63;;;;;;;16.62;80.25;102301.97;5073508;28;20089;-34
2021/07/16 09:20:09;;;;;;;21.13;5.88;;;;;;;16.53;80.15;102287.00;5072164;28;20029;-36
2021/07/16 09:22:35;;;;;;;28.15;4.97;;;;;;;16.61;80.12;102296.75;5073022;28;20019;-36
2021/07/16 09:25:04;;;;;;;22.55;5.28;;;;;;;16.64;78.83;102310.78;5073633;28;20020;-36
2021/07/16 09:27:44;;;;;;;19.30;4.68;;;;;;;16.78;79.78;102321.50;5072926;28;20024;-34
2021/07/16 09:30:21;;;;;;;24.83;5.38;;;;;;;16.69;79.64;102304.63;5073586;28;20028;-34
2021/07/16 09:32:48;;;;;;;21.08;4.88;;;;;;;16.63;79.35;102303.63;5072928;28;20104;-34
2021/07/16 09:35:19;;;;;;;17.85;4.72;;;;;;;16.78;79.67;102318.75;5073501;28;20040;-34
2021/07/16 09:37:51;;;;;;;21.70;5.07;;;;;;;16.78;79.97;102311.41;5073555;28;20036;-34
2021/07/16 09:40:25;;;;;;;24.15;4.88;;;;;;;16.94;79.36;102315.34;5074077;28;20035;-36
2021/07/16 09:43:00;;;;;;;22.13;5.03;;;;;;;17.03;79.91;102324.00;5072917;28;20033;-36
2021/07/16 09:45:26;;;;;;;21.85;4.90;;;;;;;17.00;78.75;102328.03;5073986;28;20132;-36
2021/07/16 09:47:52;;;;;;;23.27;5.60;;;;;;;17.04;79.35;102321.03;5073042;28;20099;-36
2021/07/16 09:50:20;;;;;;;21.05;5.13;;;;;;;17.05;78.15;102328.16;5072885;28;20369;-34
2021/07/16 09:52:47;;;;;;;22.65;5.15;;;;;;;17.04;78.55;102318.31;5073014;28;20074;-34
2021/07/16 09:55:14;;;;;;;19.83;5.20;;;;;;;17.16;78.47;102321.03;5073307;28;20016;-34
2021/07/16 09:57:45;;;;;;;23.40;5.40;;;;;;;17.27;79.25;102322.06;5072957;28;20482;-34
2021/07/16 10:00:14;;;;;;;22.70;5.78;;;;;;;17.36;77.89;102321.47;5073314;28;20043;-34
2021/07/16 10:02:43;;;;;;;22.70;6.28;;;;;;;17.42;77.97;102320.53;5073427;28;20488;-34
2021/07/16 10:05:09;;;;;;;16.92;5.20;;;;;;;17.48;77.04;102310.53;5073232;28;20066;-35
2021/07/16 10:07:35;;;;;;;21.83;4.80;;;;;;;17.59;76.42;102301.44;5072844;28;20021;-35
2021/07/16 10:10:01;;;;;;;23.25;5.90;;;;;;;17.81;76.25;102319.94;5072633;28;20461;-35
2021/07/16 10:12:28;;;;;;;22.23;5.07;;;;;;;17.82;75.18;102338.03;5073567;28;20036;-35
2021/07/16 10:14:55;;;;;;;27.80;6.47;;;;;;;17.86;75.27;102341.94;5072923;28;20031;-35
2021/07/16 10:17:20;;;;;;;20.98;5.28;;;;;;;17.67;75.21;102330.31;5074149;28;20077;-35
2021/07/16 10:19:45;;;;;;;24.27;5.47;;;;;;;17.75;75.79;102333.53;5076517;28;20099;-35
2021/07/16 10:22:12;;;;;;;;;;;;;;;17.86;77.77;102330.97;5076919;28;20032;-35
2021/07/16 10:24:38;;;;;;;22.92;4.80;;;;;;;17.75;75.94;102330.78;5076369;28;19904;-35
2021/07/16 10:27:05;;;;;;;23.48;5.60;;;;;;;17.72;75.02;102333.16;5076846;28;20099;-35
2021/07/16 10:29:34;;;;;;;23.10;4.60;;;;;;;17.61;75.28;102329.38;5076277;28;20021;-35
2021/07/16 10:31:59;;;;;;;21.27;5.07;;;;;;;17.51;74.94;102338.19;5076800;28;20103;-35
2021/07/16 10:34:27;;;;;;;22.98;5.18;;;;;;;17.41;75.17;102342.63;5076518;28;20390;-35
2021/07/16 10:36:58;;;;;;;20.95;4.95;;;;;;;17.29;76.66;102336.34;5076191;28;20049;-35
2021/07/16 10:39:41;;;;;;;24.27;5.07;;;;;;;17.34;77.66;102345.50;5076084;28;20030;-35
2021/07/16 10:42:25;;;;;;;25.90;5.22;;;;;;;17.21;77.25;102349.28;5076655;28;20029;-35
2021/07/16 10:44:51;;;;;;;26.05;5.40;;;;;;;17.12;76.42;102358.91;5076022;28;20097;-35
2021/07/16 10:47:47;;;;;;;19.73;5.15;;;;;;;17.06;76.72;102370.81;5075861;28;20033;-35
2021/07/16 10:50:27;;;;;;;20.25;5.07;;;;;;;16.99;77.65;102368.22;5075355;28;20026;-35
2021/07/16 10:52:53;;;;;;;26.48;5.70;;;;;;;17.01;79.46;102370.69;5076132;28;20028;-35
2021/07/16 10:55:40;;;;;;;20.50;5.47;;;;;;;17.00;79.25;102366.31;5076351;28;20029;-35
2021/07/16 10:58:29;;;;;;;23.92;4.95;;;;;;;17.07;80.05;102377.09;5076377;28;20064;-35
2021/07/16 11:00:59;;;;;;;23.05;5.85;;;;;;;16.93;79.28;102363.69;5076262;28;20059;-35
2021/07/16 11:03:44;;;;;;;21.52;5.07;;;;;;;17.12;80.43;102369.03;5076394;28;20024;-35
2021/07/16 11:06:10;;;;;;;22.48;5.22;;;;;;;17.07;78.07;102377.09;5075800;28;20009;-35
2021/07/16 11:08:39;;;;;;;21.60;5.90;;;;;;;17.00;79.67;102377.22;5075981;28;20425;-35
2021/07/16 11:11:19;;;;;;;17.63;5.38;;;;;;;16.89;80.67;102354.31;5075478;28;20032;-35
2021/07/16 11:13:52;;;;;;;24.02;6.03;;;;;;;17.05;80.43;102376.53;5076273;28;20063;-35
2021/07/16 11:16:30;;;;;;;18.75;5.15;;;;;;;17.07;79.97;102368.91;5075405;28;20031;-35
2021/07/16 11:18:55;;;;;;;21.95;6.13;;;;;;;17.09;80.14;102369.53;5075926;28;20025;-35
2021/07/16 11:21:42;;;;;;;28.50;5.87;;;;;;;17.19;80.84;102359.66;5075339;28;20024;-35
2021/07/16 11:24:19;;;;;;;28.42;6.07;;;;;;;17.30;79.50;102360.72;5075165;28;20075;-35